sensor_id;sensor_type;location;lat;lon;timestamp;P1;durP1;ratioP1;P2;durP2;ratioP2
9140;SDS011;46330;50.822;7.126;2022-12-07T00:01:05;31.42;;;18.50;;
9140;SDS011;46330;50.822;7.126;2022-12-07T00:03:34;32.67;;;18.30;;
9140;SDS011;46330;50.822;7.126;2022-12-07T00:06:03;31.65;;;18.70;;
9140;SDS011;46330;50.822;7.126;2022-12-07T00:08:33;30.55;;;17.55;;
9140;SDS011;46330;50.822;7.126;2022-12-07T00:11:05;28.42;;;16.08;;
9140;SDS011;46330;50.822;7.126;2022-12-07T00:13:35;30.70;;;19.52;;
9140;SDS011;46330;50.822;7.126;2022-12-07T00:16:04;30.27;;;17.52;;
9140;SDS011;46330;50.822;7.126;2022-12-07T00:18:33;32.15;;;19.13;;
9140;SDS011;46330;50.822;7.126;2022-12-07T00:21:02;33.28;;;18.70;;
9140;SDS011;46330;50.822;7.126;2022-12-07T00:23:31;33.63;;;19.55;;
9140;SDS011;46330;50.822;7.126;2022-12-07T00:26:04;32.20;;;18.90;;
9140;SDS011;46330;50.822;7.126;2022-12-07T00:28:32;35.50;;;19.50;;
9140;SDS011;46330;50.822;7.126;2022-12-07T00:31:02;28.92;;;18.77;;
9140;SDS011;46330;50.822;7.126;2022-12-07T00:33:31;28.13;;;17.45;;
9140;SDS011;46330;50.822;7.126;2022-12-07T00:35:59;34.63;;;18.70;;
9140;SDS011;46330;50.822;7.126;2022-12-07T00:38:28;31.55;;;18.52;;
9140;SDS011;46330;50.822;7.126;2022-12-07T00:40:58;28.65;;;18.20;;
9140;SDS011;46330;50.822;7.126;2022-12-07T00:43:27;29.73;;;18.13;;
9140;SDS011;46330;50.822;7.126;2022-12-07T00:45:56;30.52;;;19.00;;
9140;SDS011;46330;50.822;7.126;2022-12-07T00:48:24;34.83;;;19.92;;
9140;SDS011;46330;50.822;7.126;2022-12-07T00:50:52;33.45;;;19.83;;
9140;SDS011;46330;50.822;7.126;2022-12-07T00:53:20;32.80;;;20.50;;
9140;SDS011;46330;50.822;7.126;2022-12-07T00:55:47;32.40;;;19.63;;
9140;SDS011;46330;50.822;7.126;2022-12-07T00:58:15;32.08;;;18.70;;
9140;SDS011;46330;50.822;7.126;2022-12-07T01:00:45;32.03;;;19.58;;
9140;SDS011;46330;50.822;7.126;2022-12-07T01:03:13;34.90;;;21.30;;
9140;SDS011;46330;50.822;7.126;2022-12-07T01:05:49;32.78;;;20.58;;
9140;SDS011;46330;50.822;7.126;2022-12-07T01:08:17;36.28;;;20.40;;
9140;SDS011;46330;50.822;7.126;2022-12-07T01:10:45;38.72;;;21.05;;
9140;SDS011;46330;50.822;7.126;2022-12-07T01:13:13;34.65;;;20.17;;
9140;SDS011;46330;50.822;7.126;2022-12-07T01:15:41;38.70;;;21.75;;
9140;SDS011;46330;50.822;7.126;2022-12-07T01:18:11;33.20;;;21.02;;
9140;SDS011;46330;50.822;7.126;2022-12-07T01:20:39;33.80;;;20.73;;
9140;SDS011;46330;50.822;7.126;2022-12-07T01:23:07;33.83;;;21.67;;
9140;SDS011;46330;50.822;7.126;2022-12-07T01:25:35;38.63;;;22.23;;
9140;SDS011;46330;50.822;7.126;2022-12-07T01:28:03;35.95;;;20.90;;
9140;SDS011;46330;50.822;7.126;2022-12-07T01:30:31;35.88;;;21.30;;
9140;SDS011;46330;50.822;7.126;2022-12-07T01:32:58;33.80;;;20.20;;
9140;SDS011;46330;50.822;7.126;2022-12-07T01:35:28;37.80;;;21.90;;
9140;SDS011;46330;50.822;7.126;2022-12-07T01:37:55;37.53;;;22.35;;
9140;SDS011;46330;50.822;7.126;2022-12-07T01:40:23;34.95;;;21.98;;
9140;SDS011;46330;50.822;7.126;2022-12-07T01:42:51;37.78;;;22.35;;
9140;SDS011;46330;50.822;7.126;2022-12-07T01:45:31;35.33;;;21.88;;
9140;SDS011;46330;50.822;7.126;2022-12-07T01:48:05;35.35;;;22.08;;
9140;SDS011;46330;50.822;7.126;2022-12-07T01:50:37;37.33;;;21.55;;
9140;SDS011;46330;50.822;7.126;2022-12-07T01:53:08;37.58;;;20.92;;
9140;SDS011;46330;50.822;7.126;2022-12-07T01:55:38;41.38;;;22.65;;
9140;SDS011;46330;50.822;7.126;2022-12-07T01:58:08;35.65;;;21.38;;
9140;SDS011;46330;50.822;7.126;2022-12-07T02:00:38;39.53;;;22.98;;
9140;SDS011;46330;50.822;7.126;2022-12-07T02:03:07;34.35;;;21.35;;
9140;SDS011;46330;50.822;7.126;2022-12-07T02:05:40;35.53;;;21.70;;
9140;SDS011;46330;50.822;7.126;2022-12-07T02:08:09;39.53;;;22.58;;
9140;SDS011;46330;50.822;7.126;2022-12-07T02:10:39;36.40;;;21.85;;
9140;SDS011;46330;50.822;7.126;2022-12-07T02:13:08;42.30;;;23.60;;
9140;SDS011;46330;50.822;7.126;2022-12-07T02:15:41;36.92;;;22.52;;
9140;SDS011;46330;50.822;7.126;2022-12-07T02:18:36;40.80;;;21.95;;
9140;SDS011;46330;50.822;7.126;2022-12-07T02:21:15;36.92;;;21.92;;
9140;SDS011;46330;50.822;7.126;2022-12-07T02:30:09;37.08;;;21.75;;
9140;SDS011;46330;50.822;7.126;2022-12-07T02:32:42;40.03;;;23.58;;
9140;SDS011;46330;50.822;7.126;2022-12-07T02:35:17;40.28;;;22.98;;
9140;SDS011;46330;50.822;7.126;2022-12-07T02:37:50;42.35;;;23.50;;
9140;SDS011;46330;50.822;7.126;2022-12-07T02:40:27;39.20;;;23.88;;
9140;SDS011;46330;50.822;7.126;2022-12-07T02:43:00;42.03;;;22.70;;
9140;SDS011;46330;50.822;7.126;2022-12-07T02:45:33;40.17;;;23.35;;
9140;SDS011;46330;50.822;7.126;2022-12-07T02:48:02;40.17;;;22.60;;
9140;SDS011;46330;50.822;7.126;2022-12-07T02:50:32;36.08;;;22.02;;
9140;SDS011;46330;50.822;7.126;2022-12-07T02:53:00;33.55;;;21.55;;
9140;SDS011;46330;50.822;7.126;2022-12-07T02:55:29;37.03;;;22.65;;
9140;SDS011;46330;50.822;7.126;2022-12-07T02:58:06;34.25;;;22.05;;
9140;SDS011;46330;50.822;7.126;2022-12-07T03:00:44;34.75;;;21.23;;
9140;SDS011;46330;50.822;7.126;2022-12-07T03:03:19;36.20;;;21.88;;
9140;SDS011;46330;50.822;7.126;2022-12-07T03:08:43;32.10;;;21.20;;
9140;SDS011;46330;50.822;7.126;2022-12-07T03:11:21;35.78;;;21.48;;
9140;SDS011;46330;50.822;7.126;2022-12-07T03:13:54;37.67;;;22.08;;
9140;SDS011;46330;50.822;7.126;2022-12-07T03:16:28;37.88;;;22.27;;
9140;SDS011;46330;50.822;7.126;2022-12-07T03:19:01;38.60;;;22.02;;
9140;SDS011;46330;50.822;7.126;2022-12-07T03:21:33;39.60;;;22.70;;
9140;SDS011;46330;50.822;7.126;2022-12-07T03:24:06;41.97;;;24.02;;
9140;SDS011;46330;50.822;7.126;2022-12-07T03:26:40;38.17;;;22.00;;
9140;SDS011;46330;50.822;7.126;2022-12-07T03:29:12;40.28;;;22.77;;
9140;SDS011;46330;50.822;7.126;2022-12-07T03:31:46;39.97;;;22.58;;
9140;SDS011;46330;50.822;7.126;2022-12-07T03:34:20;40.25;;;22.70;;
9140;SDS011;46330;50.822;7.126;2022-12-07T03:36:55;37.95;;;20.98;;
9140;SDS011;46330;50.822;7.126;2022-12-07T03:39:29;34.55;;;22.27;;
9140;SDS011;46330;50.822;7.126;2022-12-07T03:42:00;36.90;;;23.20;;
9140;SDS011;46330;50.822;7.126;2022-12-07T03:44:32;37.45;;;22.95;;
9140;SDS011;46330;50.822;7.126;2022-12-07T03:47:03;38.65;;;23.33;;
9140;SDS011;46330;50.822;7.126;2022-12-07T03:49:37;36.83;;;23.05;;
9140;SDS011;46330;50.822;7.126;2022-12-07T03:52:16;36.88;;;23.33;;
9140;SDS011;46330;50.822;7.126;2022-12-07T03:54:52;38.70;;;23.63;;
9140;SDS011;46330;50.822;7.126;2022-12-07T03:57:24;37.30;;;21.90;;
9140;SDS011;46330;50.822;7.126;2022-12-07T03:59:53;36.03;;;22.45;;
9140;SDS011;46330;50.822;7.126;2022-12-07T04:02:24;37.72;;;22.83;;
9140;SDS011;46330;50.822;7.126;2022-12-07T04:04:54;39.65;;;21.98;;
9140;SDS011;46330;50.822;7.126;2022-12-07T04:07:22;34.53;;;20.85;;
9140;SDS011;46330;50.822;7.126;2022-12-07T04:09:50;37.22;;;22.92;;
9140;SDS011;46330;50.822;7.126;2022-12-07T04:12:21;37.75;;;21.67;;
9140;SDS011;46330;50.822;7.126;2022-12-07T04:14:48;36.38;;;21.20;;
9140;SDS011;46330;50.822;7.126;2022-12-07T04:17:16;36.72;;;22.75;;
9140;SDS011;46330;50.822;7.126;2022-12-07T04:19:45;37.38;;;22.15;;
9140;SDS011;46330;50.822;7.126;2022-12-07T04:22:13;35.08;;;21.70;;
9140;SDS011;46330;50.822;7.126;2022-12-07T04:24:41;34.05;;;20.67;;
9140;SDS011;46330;50.822;7.126;2022-12-07T04:27:08;35.88;;;21.83;;
9140;SDS011;46330;50.822;7.126;2022-12-07T04:29:36;35.47;;;21.20;;
9140;SDS011;46330;50.822;7.126;2022-12-07T04:32:04;35.60;;;21.40;;
9140;SDS011;46330;50.822;7.126;2022-12-07T04:34:32;34.20;;;21.52;;
9140;SDS011;46330;50.822;7.126;2022-12-07T04:37:02;36.67;;;20.67;;
9140;SDS011;46330;50.822;7.126;2022-12-07T04:39:30;33.90;;;20.85;;
9140;SDS011;46330;50.822;7.126;2022-12-07T04:41:59;36.72;;;20.83;;
9140;SDS011;46330;50.822;7.126;2022-12-07T04:44:27;33.75;;;19.90;;
9140;SDS011;46330;50.822;7.126;2022-12-07T04:46:56;32.75;;;19.77;;
9140;SDS011;46330;50.822;7.126;2022-12-07T04:49:24;28.40;;;18.52;;
9140;SDS011;46330;50.822;7.126;2022-12-07T04:51:52;35.45;;;19.92;;
9140;SDS011;46330;50.822;7.126;2022-12-07T04:54:21;32.35;;;19.17;;
9140;SDS011;46330;50.822;7.126;2022-12-07T04:56:49;35.88;;;19.55;;
9140;SDS011;46330;50.822;7.126;2022-12-07T04:59:17;36.60;;;21.33;;
9140;SDS011;46330;50.822;7.126;2022-12-07T05:01:45;34.05;;;19.75;;
9140;SDS011;46330;50.822;7.126;2022-12-07T05:04:12;42.80;;;22.88;;
9140;SDS011;46330;50.822;7.126;2022-12-07T05:06:42;31.52;;;19.67;;
9140;SDS011;46330;50.822;7.126;2022-12-07T05:09:09;33.95;;;20.13;;
9140;SDS011;46330;50.822;7.126;2022-12-07T05:11:39;32.05;;;19.42;;
9140;SDS011;46330;50.822;7.126;2022-12-07T05:14:08;32.17;;;19.70;;
9140;SDS011;46330;50.822;7.126;2022-12-07T05:16:37;34.53;;;18.92;;
9140;SDS011;46330;50.822;7.126;2022-12-07T05:19:06;35.67;;;19.25;;
9140;SDS011;46330;50.822;7.126;2022-12-07T05:21:34;29.17;;;18.63;;
9140;SDS011;46330;50.822;7.126;2022-12-07T05:24:02;33.65;;;19.63;;
9140;SDS011;46330;50.822;7.126;2022-12-07T05:26:31;30.92;;;18.75;;
9140;SDS011;46330;50.822;7.126;2022-12-07T05:29:00;39.65;;;22.67;;
9140;SDS011;46330;50.822;7.126;2022-12-07T05:31:28;38.50;;;19.80;;
9140;SDS011;46330;50.822;7.126;2022-12-07T05:33:56;34.95;;;19.42;;
9140;SDS011;46330;50.822;7.126;2022-12-07T05:36:23;38.75;;;19.17;;
9140;SDS011;46330;50.822;7.126;2022-12-07T05:38:51;36.92;;;19.95;;
9140;SDS011;46330;50.822;7.126;2022-12-07T05:41:19;33.47;;;19.38;;
9140;SDS011;46330;50.822;7.126;2022-12-07T05:44:06;36.22;;;21.20;;
9140;SDS011;46330;50.822;7.126;2022-12-07T05:46:34;36.15;;;20.27;;
9140;SDS011;46330;50.822;7.126;2022-12-07T05:49:02;30.60;;;19.88;;
9140;SDS011;46330;50.822;7.126;2022-12-07T05:51:29;34.88;;;20.17;;
9140;SDS011;46330;50.822;7.126;2022-12-07T05:53:57;33.65;;;18.70;;
9140;SDS011;46330;50.822;7.126;2022-12-07T05:56:25;30.15;;;18.90;;
9140;SDS011;46330;50.822;7.126;2022-12-07T05:58:54;33.13;;;19.27;;
9140;SDS011;46330;50.822;7.126;2022-12-07T06:01:40;31.40;;;18.33;;
9140;SDS011;46330;50.822;7.126;2022-12-07T06:04:08;31.25;;;19.05;;
9140;SDS011;46330;50.822;7.126;2022-12-07T06:06:36;34.53;;;20.20;;
9140;SDS011;46330;50.822;7.126;2022-12-07T06:09:04;30.48;;;17.65;;
9140;SDS011;46330;50.822;7.126;2022-12-07T06:11:31;32.03;;;18.23;;
9140;SDS011;46330;50.822;7.126;2022-12-07T06:14:17;34.47;;;19.10;;
9140;SDS011;46330;50.822;7.126;2022-12-07T06:16:46;33.28;;;18.92;;
9140;SDS011;46330;50.822;7.126;2022-12-07T06:19:14;35.13;;;19.52;;
9140;SDS011;46330;50.822;7.126;2022-12-07T06:21:42;32.72;;;19.92;;
9140;SDS011;46330;50.822;7.126;2022-12-07T06:24:10;32.25;;;18.42;;
9140;SDS011;46330;50.822;7.126;2022-12-07T06:26:38;31.92;;;17.17;;
9140;SDS011;46330;50.822;7.126;2022-12-07T06:29:07;27.75;;;15.10;;
9140;SDS011;46330;50.822;7.126;2022-12-07T06:31:34;29.45;;;15.93;;
9140;SDS011;46330;50.822;7.126;2022-12-07T06:34:05;27.83;;;15.98;;
9140;SDS011;46330;50.822;7.126;2022-12-07T06:36:33;29.13;;;16.75;;
9140;SDS011;46330;50.822;7.126;2022-12-07T06:39:01;31.45;;;15.90;;
9140;SDS011;46330;50.822;7.126;2022-12-07T06:41:29;34.47;;;16.60;;
9140;SDS011;46330;50.822;7.126;2022-12-07T06:43:57;26.92;;;16.50;;
9140;SDS011;46330;50.822;7.126;2022-12-07T06:46:25;26.05;;;16.00;;
9140;SDS011;46330;50.822;7.126;2022-12-07T06:48:53;29.05;;;16.45;;
9140;SDS011;46330;50.822;7.126;2022-12-07T06:51:22;31.13;;;16.77;;
9140;SDS011;46330;50.822;7.126;2022-12-07T06:53:50;30.83;;;17.13;;
9140;SDS011;46330;50.822;7.126;2022-12-07T06:56:18;35.90;;;17.65;;
9140;SDS011;46330;50.822;7.126;2022-12-07T06:58:46;34.08;;;18.30;;
9140;SDS011;46330;50.822;7.126;2022-12-07T07:01:15;37.08;;;18.48;;
9140;SDS011;46330;50.822;7.126;2022-12-07T07:03:44;53.55;;;24.90;;
9140;SDS011;46330;50.822;7.126;2022-12-07T07:06:13;39.50;;;20.15;;
9140;SDS011;46330;50.822;7.126;2022-12-07T07:08:42;39.38;;;18.77;;
9140;SDS011;46330;50.822;7.126;2022-12-07T07:11:10;34.30;;;18.08;;
9140;SDS011;46330;50.822;7.126;2022-12-07T07:13:38;38.20;;;19.15;;
9140;SDS011;46330;50.822;7.126;2022-12-07T07:16:06;33.08;;;18.35;;
9140;SDS011;46330;50.822;7.126;2022-12-07T07:18:35;32.55;;;19.17;;
9140;SDS011;46330;50.822;7.126;2022-12-07T07:21:03;36.92;;;19.70;;
9140;SDS011;46330;50.822;7.126;2022-12-07T07:23:32;36.03;;;19.10;;
9140;SDS011;46330;50.822;7.126;2022-12-07T07:26:01;38.70;;;20.25;;
9140;SDS011;46330;50.822;7.126;2022-12-07T07:28:28;35.05;;;19.60;;
9140;SDS011;46330;50.822;7.126;2022-12-07T07:30:56;37.90;;;19.85;;
9140;SDS011;46330;50.822;7.126;2022-12-07T07:33:24;39.95;;;20.40;;
9140;SDS011;46330;50.822;7.126;2022-12-07T07:35:52;37.65;;;19.67;;
9140;SDS011;46330;50.822;7.126;2022-12-07T07:38:20;33.83;;;20.05;;
9140;SDS011;46330;50.822;7.126;2022-12-07T07:40:47;35.50;;;20.38;;
9140;SDS011;46330;50.822;7.126;2022-12-07T07:43:17;38.35;;;20.42;;
9140;SDS011;46330;50.822;7.126;2022-12-07T07:45:44;37.47;;;20.23;;
9140;SDS011;46330;50.822;7.126;2022-12-07T07:48:12;37.05;;;19.98;;
9140;SDS011;46330;50.822;7.126;2022-12-07T07:50:40;33.97;;;19.70;;
9140;SDS011;46330;50.822;7.126;2022-12-07T07:53:08;35.58;;;19.90;;
9140;SDS011;46330;50.822;7.126;2022-12-07T07:55:36;41.42;;;20.70;;
9140;SDS011;46330;50.822;7.126;2022-12-07T07:58:03;38.88;;;21.05;;
9140;SDS011;46330;50.822;7.126;2022-12-07T08:00:32;41.47;;;20.33;;
9140;SDS011;46330;50.822;7.126;2022-12-07T08:03:00;36.13;;;21.60;;
9140;SDS011;46330;50.822;7.126;2022-12-07T08:05:28;35.45;;;20.48;;
9140;SDS011;46330;50.822;7.126;2022-12-07T08:07:56;42.22;;;22.02;;
9140;SDS011;46330;50.822;7.126;2022-12-07T08:10:25;36.20;;;20.85;;
9140;SDS011;46330;50.822;7.126;2022-12-07T08:12:53;34.95;;;18.95;;
9140;SDS011;46330;50.822;7.126;2022-12-07T08:15:41;33.60;;;19.52;;
9140;SDS011;46330;50.822;7.126;2022-12-07T08:18:11;35.30;;;20.00;;
9140;SDS011;46330;50.822;7.126;2022-12-07T08:20:39;30.90;;;19.15;;
9140;SDS011;46330;50.822;7.126;2022-12-07T08:23:08;43.75;;;25.23;;
9140;SDS011;46330;50.822;7.126;2022-12-07T08:25:36;35.15;;;20.38;;
9140;SDS011;46330;50.822;7.126;2022-12-07T08:28:04;37.15;;;19.67;;
9140;SDS011;46330;50.822;7.126;2022-12-07T08:30:32;31.73;;;18.27;;
9140;SDS011;46330;50.822;7.126;2022-12-07T08:33:02;29.65;;;19.52;;
9140;SDS011;46330;50.822;7.126;2022-12-07T08:35:29;34.03;;;19.23;;
9140;SDS011;46330;50.822;7.126;2022-12-07T08:37:59;29.85;;;17.85;;
9140;SDS011;46330;50.822;7.126;2022-12-07T08:40:28;33.03;;;18.20;;
9140;SDS011;46330;50.822;7.126;2022-12-07T08:42:57;32.25;;;18.52;;
9140;SDS011;46330;50.822;7.126;2022-12-07T08:45:24;29.60;;;17.80;;
9140;SDS011;46330;50.822;7.126;2022-12-07T08:47:54;30.05;;;17.25;;
9140;SDS011;46330;50.822;7.126;2022-12-07T08:50:27;30.73;;;16.63;;
9140;SDS011;46330;50.822;7.126;2022-12-07T08:52:56;32.00;;;17.42;;
9140;SDS011;46330;50.822;7.126;2022-12-07T08:55:25;29.35;;;16.60;;
9140;SDS011;46330;50.822;7.126;2022-12-07T08:57:54;24.85;;;15.57;;
9140;SDS011;46330;50.822;7.126;2022-12-07T09:00:22;26.40;;;16.75;;
9140;SDS011;46330;50.822;7.126;2022-12-07T09:02:50;26.85;;;17.10;;
9140;SDS011;46330;50.822;7.126;2022-12-07T09:05:18;29.48;;;16.88;;
9140;SDS011;46330;50.822;7.126;2022-12-07T09:07:48;26.88;;;15.63;;
9140;SDS011;46330;50.822;7.126;2022-12-07T09:10:19;34.08;;;17.42;;
9140;SDS011;46330;50.822;7.126;2022-12-07T09:12:47;27.77;;;16.90;;
9140;SDS011;46330;50.822;7.126;2022-12-07T09:15:15;29.35;;;16.98;;
9140;SDS011;46330;50.822;7.126;2022-12-07T09:17:43;31.55;;;16.25;;
9140;SDS011;46330;50.822;7.126;2022-12-07T09:20:11;31.42;;;17.52;;
9140;SDS011;46330;50.822;7.126;2022-12-07T09:22:39;30.92;;;17.05;;
9140;SDS011;46330;50.822;7.126;2022-12-07T09:25:08;27.95;;;17.88;;
9140;SDS011;46330;50.822;7.126;2022-12-07T09:27:36;28.42;;;16.17;;
9140;SDS011;46330;50.822;7.126;2022-12-07T09:30:05;32.38;;;17.67;;
9140;SDS011;46330;50.822;7.126;2022-12-07T09:32:33;29.85;;;17.65;;
9140;SDS011;46330;50.822;7.126;2022-12-07T09:35:01;29.58;;;16.83;;
9140;SDS011;46330;50.822;7.126;2022-12-07T09:37:29;30.15;;;17.15;;
9140;SDS011;46330;50.822;7.126;2022-12-07T09:40:01;26.10;;;15.98;;
9140;SDS011;46330;50.822;7.126;2022-12-07T09:42:32;28.00;;;16.25;;
9140;SDS011;46330;50.822;7.126;2022-12-07T09:45:04;30.42;;;16.63;;
9140;SDS011;46330;50.822;7.126;2022-12-07T09:47:33;23.50;;;15.43;;
9140;SDS011;46330;50.822;7.126;2022-12-07T09:50:03;23.70;;;15.10;;
9140;SDS011;46330;50.822;7.126;2022-12-07T09:52:33;25.15;;;15.75;;
9140;SDS011;46330;50.822;7.126;2022-12-07T09:55:08;27.05;;;15.20;;
9140;SDS011;46330;50.822;7.126;2022-12-07T09:57:40;27.25;;;15.75;;
9140;SDS011;46330;50.822;7.126;2022-12-07T10:00:11;26.20;;;15.80;;
9140;SDS011;46330;50.822;7.126;2022-12-07T10:02:42;30.02;;;15.07;;
9140;SDS011;46330;50.822;7.126;2022-12-07T10:05:13;27.10;;;14.75;;
9140;SDS011;46330;50.822;7.126;2022-12-07T10:07:49;27.85;;;15.13;;
9140;SDS011;46330;50.822;7.126;2022-12-07T10:10:19;25.05;;;14.90;;
9140;SDS011;46330;50.822;7.126;2022-12-07T10:12:58;26.98;;;15.13;;
9140;SDS011;46330;50.822;7.126;2022-12-07T10:18:32;26.80;;;15.30;;
9140;SDS011;46330;50.822;7.126;2022-12-07T10:21:05;26.40;;;15.85;;
9140;SDS011;46330;50.822;7.126;2022-12-07T10:23:38;29.52;;;16.10;;
9140;SDS011;46330;50.822;7.126;2022-12-07T10:29:00;24.50;;;14.55;;
9140;SDS011;46330;50.822;7.126;2022-12-07T10:31:30;28.55;;;15.25;;
9140;SDS011;46330;50.822;7.126;2022-12-07T10:33:58;25.90;;;14.82;;
9140;SDS011;46330;50.822;7.126;2022-12-07T10:36:33;24.48;;;13.60;;
9140;SDS011;46330;50.822;7.126;2022-12-07T10:39:03;26.15;;;13.38;;
9140;SDS011;46330;50.822;7.126;2022-12-07T10:41:43;23.92;;;12.68;;
9140;SDS011;46330;50.822;7.126;2022-12-07T10:44:22;24.13;;;12.30;;
9140;SDS011;46330;50.822;7.126;2022-12-07T10:46:58;22.70;;;12.13;;
9140;SDS011;46330;50.822;7.126;2022-12-07T10:49:55;19.38;;;11.80;;
9140;SDS011;46330;50.822;7.126;2022-12-07T10:55:58;21.40;;;9.63;;
9140;SDS011;46330;50.822;7.126;2022-12-07T10:58:42;19.77;;;9.13;;
9140;SDS011;46330;50.822;7.126;2022-12-07T11:01:23;17.52;;;10.05;;
9140;SDS011;46330;50.822;7.126;2022-12-07T11:04:03;16.27;;;9.02;;
9140;SDS011;46330;50.822;7.126;2022-12-07T11:06:44;17.35;;;9.25;;
9140;SDS011;46330;50.822;7.126;2022-12-07T11:09:37;19.20;;;9.20;;
9140;SDS011;46330;50.822;7.126;2022-12-07T11:15:26;21.05;;;8.57;;
9140;SDS011;46330;50.822;7.126;2022-12-07T11:18:03;15.75;;;8.25;;
9140;SDS011;46330;50.822;7.126;2022-12-07T11:20:41;17.55;;;8.15;;
9140;SDS011;46330;50.822;7.126;2022-12-07T11:23:16;13.93;;;8.10;;
9140;SDS011;46330;50.822;7.126;2022-12-07T11:25:53;16.20;;;7.93;;
9140;SDS011;46330;50.822;7.126;2022-12-07T11:28:28;17.77;;;7.35;;
9140;SDS011;46330;50.822;7.126;2022-12-07T11:31:08;16.08;;;6.93;;
9140;SDS011;46330;50.822;7.126;2022-12-07T11:33:49;14.95;;;7.38;;
9140;SDS011;46330;50.822;7.126;2022-12-07T11:36:31;11.73;;;6.88;;
9140;SDS011;46330;50.822;7.126;2022-12-07T11:39:04;12.23;;;7.00;;
9140;SDS011;46330;50.822;7.126;2022-12-07T11:41:43;16.95;;;7.40;;
9140;SDS011;46330;50.822;7.126;2022-12-07T11:44:17;19.02;;;7.22;;
9140;SDS011;46330;50.822;7.126;2022-12-07T11:46:55;13.93;;;7.20;;
9140;SDS011;46330;50.822;7.126;2022-12-07T11:49:36;12.98;;;6.80;;
9140;SDS011;46330;50.822;7.126;2022-12-07T11:52:13;13.60;;;6.60;;
9140;SDS011;46330;50.822;7.126;2022-12-07T11:54:48;13.60;;;6.28;;
9140;SDS011;46330;50.822;7.126;2022-12-07T11:57:20;12.23;;;6.20;;
9140;SDS011;46330;50.822;7.126;2022-12-07T11:59:56;12.43;;;6.53;;
9140;SDS011;46330;50.822;7.126;2022-12-07T12:02:32;13.65;;;6.30;;
9140;SDS011;46330;50.822;7.126;2022-12-07T12:05:07;13.07;;;6.35;;
9140;SDS011;46330;50.822;7.126;2022-12-07T12:07:42;13.85;;;6.18;;
9140;SDS011;46330;50.822;7.126;2022-12-07T12:10:35;16.15;;;6.80;;
9140;SDS011;46330;50.822;7.126;2022-12-07T12:13:14;15.90;;;7.00;;
9140;SDS011;46330;50.822;7.126;2022-12-07T12:16:15;13.27;;;5.57;;
9140;SDS011;46330;50.822;7.126;2022-12-07T12:19:03;12.93;;;5.93;;
9140;SDS011;46330;50.822;7.126;2022-12-07T12:21:45;12.70;;;5.93;;
9140;SDS011;46330;50.822;7.126;2022-12-07T12:24:23;13.07;;;5.43;;
9140;SDS011;46330;50.822;7.126;2022-12-07T12:26:55;14.77;;;6.10;;
9140;SDS011;46330;50.822;7.126;2022-12-07T12:29:31;17.48;;;6.20;;
9140;SDS011;46330;50.822;7.126;2022-12-07T12:32:05;11.65;;;6.28;;
9140;SDS011;46330;50.822;7.126;2022-12-07T12:34:39;10.88;;;5.78;;
9140;SDS011;46330;50.822;7.126;2022-12-07T12:49:33;14.95;;;6.78;;
9140;SDS011;46330;50.822;7.126;2022-12-07T12:55:18;16.40;;;7.65;;
9140;SDS011;46330;50.822;7.126;2022-12-07T13:03:56;9.93;;;5.45;;
9140;SDS011;46330;50.822;7.126;2022-12-07T13:06:32;16.25;;;7.22;;
9140;SDS011;46330;50.822;7.126;2022-12-07T13:09:04;16.02;;;6.78;;
9140;SDS011;46330;50.822;7.126;2022-12-07T13:11:46;17.13;;;6.65;;
9140;SDS011;46330;50.822;7.126;2022-12-07T13:17:09;12.85;;;6.43;;
9140;SDS011;46330;50.822;7.126;2022-12-07T13:25:19;17.45;;;6.82;;
9140;SDS011;46330;50.822;7.126;2022-12-07T13:27:56;13.80;;;7.00;;
9140;SDS011;46330;50.822;7.126;2022-12-07T13:30:28;14.32;;;6.22;;
9140;SDS011;46330;50.822;7.126;2022-12-07T13:32:57;11.70;;;6.40;;
9140;SDS011;46330;50.822;7.126;2022-12-07T13:35:33;13.63;;;6.53;;
9140;SDS011;46330;50.822;7.126;2022-12-07T13:38:04;13.65;;;6.30;;
9140;SDS011;46330;50.822;7.126;2022-12-07T13:40:58;17.85;;;6.18;;
9140;SDS011;46330;50.822;7.126;2022-12-07T13:43:28;11.40;;;5.88;;
9140;SDS011;46330;50.822;7.126;2022-12-07T13:45:56;9.30;;;5.20;;
9140;SDS011;46330;50.822;7.126;2022-12-07T13:48:27;13.38;;;6.32;;
9140;SDS011;46330;50.822;7.126;2022-12-07T13:50:59;15.48;;;5.95;;
9140;SDS011;46330;50.822;7.126;2022-12-07T13:53:29;15.80;;;6.90;;
9140;SDS011;46330;50.822;7.126;2022-12-07T13:55:57;14.60;;;7.25;;
9140;SDS011;46330;50.822;7.126;2022-12-07T13:58:29;16.73;;;7.28;;
9140;SDS011;46330;50.822;7.126;2022-12-07T14:00:58;15.07;;;8.07;;
9140;SDS011;46330;50.822;7.126;2022-12-07T14:03:29;16.52;;;7.75;;
9140;SDS011;46330;50.822;7.126;2022-12-07T14:06:16;17.52;;;8.27;;
9140;SDS011;46330;50.822;7.126;2022-12-07T14:08:47;17.00;;;8.75;;
9140;SDS011;46330;50.822;7.126;2022-12-07T14:11:21;15.15;;;8.40;;
9140;SDS011;46330;50.822;7.126;2022-12-07T14:13:56;14.43;;;8.52;;
9140;SDS011;46330;50.822;7.126;2022-12-07T14:16:28;14.30;;;8.45;;
9140;SDS011;46330;50.822;7.126;2022-12-07T14:18:58;14.50;;;8.45;;
9140;SDS011;46330;50.822;7.126;2022-12-07T14:21:27;15.05;;;8.82;;
9140;SDS011;46330;50.822;7.126;2022-12-07T14:24:08;18.02;;;9.15;;
9140;SDS011;46330;50.822;7.126;2022-12-07T14:26:38;19.88;;;9.20;;
9140;SDS011;46330;50.822;7.126;2022-12-07T14:29:21;15.30;;;8.88;;
9140;SDS011;46330;50.822;7.126;2022-12-07T14:31:56;18.20;;;9.35;;
9140;SDS011;46330;50.822;7.126;2022-12-07T14:34:25;22.05;;;9.88;;
9140;SDS011;46330;50.822;7.126;2022-12-07T14:36:53;18.98;;;10.00;;
9140;SDS011;46330;50.822;7.126;2022-12-07T14:39:21;15.80;;;9.02;;
9140;SDS011;46330;50.822;7.126;2022-12-07T14:41:48;15.75;;;8.65;;
9140;SDS011;46330;50.822;7.126;2022-12-07T14:44:21;14.35;;;8.45;;
9140;SDS011;46330;50.822;7.126;2022-12-07T14:46:57;13.43;;;8.43;;
9140;SDS011;46330;50.822;7.126;2022-12-07T14:49:45;12.68;;;7.93;;
9140;SDS011;46330;50.822;7.126;2022-12-07T14:52:13;13.20;;;7.72;;
9140;SDS011;46330;50.822;7.126;2022-12-07T14:55:04;12.48;;;6.97;;
9140;SDS011;46330;50.822;7.126;2022-12-07T14:57:37;10.15;;;6.53;;
9140;SDS011;46330;50.822;7.126;2022-12-07T15:00:07;10.63;;;6.43;;
9140;SDS011;46330;50.822;7.126;2022-12-07T15:02:40;10.98;;;6.30;;
9140;SDS011;46330;50.822;7.126;2022-12-07T15:05:09;14.93;;;6.75;;
9140;SDS011;46330;50.822;7.126;2022-12-07T15:07:42;11.35;;;6.25;;
9140;SDS011;46330;50.822;7.126;2022-12-07T15:10:13;12.93;;;7.00;;
9140;SDS011;46330;50.822;7.126;2022-12-07T15:12:49;13.90;;;6.63;;
9140;SDS011;46330;50.822;7.126;2022-12-07T15:15:18;16.05;;;8.43;;
9140;SDS011;46330;50.822;7.126;2022-12-07T15:17:46;19.55;;;9.55;;
9140;SDS011;46330;50.822;7.126;2022-12-07T15:20:14;17.27;;;8.55;;
9140;SDS011;46330;50.822;7.126;2022-12-07T15:22:43;16.17;;;7.95;;
9140;SDS011;46330;50.822;7.126;2022-12-07T15:25:12;14.23;;;7.95;;
9140;SDS011;46330;50.822;7.126;2022-12-07T15:27:40;17.73;;;8.10;;
9140;SDS011;46330;50.822;7.126;2022-12-07T15:30:08;16.30;;;8.48;;
9140;SDS011;46330;50.822;7.126;2022-12-07T15:32:37;12.18;;;8.48;;
9140;SDS011;46330;50.822;7.126;2022-12-07T15:35:06;15.10;;;8.63;;
9140;SDS011;46330;50.822;7.126;2022-12-07T15:37:34;14.70;;;8.15;;
9140;SDS011;46330;50.822;7.126;2022-12-07T15:40:02;20.05;;;9.63;;
9140;SDS011;46330;50.822;7.126;2022-12-07T15:42:33;15.63;;;8.98;;
9140;SDS011;46330;50.822;7.126;2022-12-07T15:45:03;16.42;;;9.05;;
9140;SDS011;46330;50.822;7.126;2022-12-07T15:47:32;15.25;;;9.05;;
9140;SDS011;46330;50.822;7.126;2022-12-07T15:50:23;16.42;;;8.70;;
9140;SDS011;46330;50.822;7.126;2022-12-07T15:52:51;19.77;;;9.18;;
9140;SDS011;46330;50.822;7.126;2022-12-07T15:55:19;16.05;;;9.10;;